sensor_id;sensor_type;location;lat;lon;timestamp;P1;durP1;ratioP1;P2;durP2;ratioP2
82990;SDS011;72806;50.832;4.864;2024-02-26T00:01:51;0.65;;;0.65;;
82990;SDS011;72806;50.832;4.864;2024-02-26T00:04:19;1.10;;;1.00;;
82990;SDS011;72806;50.832;4.864;2024-02-26T00:06:47;1.35;;;1.15;;
82990;SDS011;72806;50.832;4.864;2024-02-26T00:09:15;2.83;;;0.98;;
82990;SDS011;72806;50.832;4.864;2024-02-26T00:11:42;2.33;;;1.27;;
82990;SDS011;72806;50.832;4.864;2024-02-26T00:14:09;2.13;;;1.08;;
82990;SDS011;72806;50.832;4.864;2024-02-26T00:16:39;0.98;;;0.80;;
82990;SDS011;72806;50.832;4.864;2024-02-26T00:19:07;1.95;;;1.10;;
82990;SDS011;72806;50.832;4.864;2024-02-26T00:21:39;1.27;;;1.15;;
82990;SDS011;72806;50.832;4.864;2024-02-26T00:24:07;0.88;;;0.65;;
82990;SDS011;72806;50.832;4.864;2024-02-26T00:26:34;1.63;;;1.10;;
82990;SDS011;72806;50.832;4.864;2024-02-26T00:29:01;1.13;;;1.00;;
82990;SDS011;72806;50.832;4.864;2024-02-26T00:31:28;1.63;;;1.10;;
82990;SDS011;72806;50.832;4.864;2024-02-26T00:33:55;2.08;;;1.30;;
82990;SDS011;72806;50.832;4.864;2024-02-26T00:36:23;0.68;;;0.68;;
82990;SDS011;72806;50.832;4.864;2024-02-26T00:38:52;1.25;;;1.08;;
82990;SDS011;72806;50.832;4.864;2024-02-26T00:41:19;3.03;;;0.90;;
82990;SDS011;72806;50.832;4.864;2024-02-26T00:43:46;1.65;;;1.15;;
82990;SDS011;72806;50.832;4.864;2024-02-26T00:46:14;0.90;;;0.90;;
82990;SDS011;72806;50.832;4.864;2024-02-26T00:48:41;1.85;;;0.95;;
82990;SDS011;72806;50.832;4.864;2024-02-26T00:51:08;2.83;;;1.02;;
82990;SDS011;72806;50.832;4.864;2024-02-26T00:53:35;2.28;;;1.33;;
82990;SDS011;72806;50.832;4.864;2024-02-26T00:56:04;1.65;;;1.00;;
82990;SDS011;72806;50.832;4.864;2024-02-26T00:58:31;1.42;;;1.20;;
82990;SDS011;72806;50.832;4.864;2024-02-26T01:00:58;1.20;;;1.00;;
82990;SDS011;72806;50.832;4.864;2024-02-26T01:03:25;1.30;;;1.15;;
82990;SDS011;72806;50.832;4.864;2024-02-26T01:05:53;1.30;;;1.00;;
82990;SDS011;72806;50.832;4.864;2024-02-26T01:08:20;1.55;;;0.77;;
82990;SDS011;72806;50.832;4.864;2024-02-26T01:10:47;0.90;;;0.80;;
82990;SDS011;72806;50.832;4.864;2024-02-26T01:13:15;2.15;;;0.93;;
82990;SDS011;72806;50.832;4.864;2024-02-26T01:15:43;1.60;;;1.13;;
82990;SDS011;72806;50.832;4.864;2024-02-26T01:18:11;1.92;;;0.90;;
82990;SDS011;72806;50.832;4.864;2024-02-26T01:20:39;2.50;;;1.20;;
82990;SDS011;72806;50.832;4.864;2024-02-26T01:23:06;0.82;;;0.57;;
82990;SDS011;72806;50.832;4.864;2024-02-26T01:25:33;0.85;;;0.82;;
82990;SDS011;72806;50.832;4.864;2024-02-26T01:28:00;2.05;;;1.05;;
82990;SDS011;72806;50.832;4.864;2024-02-26T01:30:29;1.88;;;1.08;;
82990;SDS011;72806;50.832;4.864;2024-02-26T01:32:56;1.90;;;0.90;;
82990;SDS011;72806;50.832;4.864;2024-02-26T01:35:23;1.95;;;1.33;;
82990;SDS011;72806;50.832;4.864;2024-02-26T01:37:51;1.27;;;0.93;;
82990;SDS011;72806;50.832;4.864;2024-02-26T01:40:18;1.33;;;0.90;;
82990;SDS011;72806;50.832;4.864;2024-02-26T01:42:45;0.80;;;0.70;;
82990;SDS011;72806;50.832;4.864;2024-02-26T01:45:14;2.25;;;1.38;;
82990;SDS011;72806;50.832;4.864;2024-02-26T01:47:48;1.40;;;1.08;;
82990;SDS011;72806;50.832;4.864;2024-02-26T01:50:16;1.25;;;1.10;;
82990;SDS011;72806;50.832;4.864;2024-02-26T01:52:44;1.25;;;0.82;;
82990;SDS011;72806;50.832;4.864;2024-02-26T01:55:12;1.17;;;0.82;;
82990;SDS011;72806;50.832;4.864;2024-02-26T01:57:40;1.30;;;1.05;;
82990;SDS011;72806;50.832;4.864;2024-02-26T02:00:10;1.00;;;0.73;;
82990;SDS011;72806;50.832;4.864;2024-02-26T02:02:38;4.88;;;0.85;;
82990;SDS011;72806;50.832;4.864;2024-02-26T02:05:08;1.33;;;0.60;;
82990;SDS011;72806;50.832;4.864;2024-02-26T02:07:36;0.63;;;0.63;;
82990;SDS011;72806;50.832;4.864;2024-02-26T02:10:04;1.60;;;0.68;;
82990;SDS011;72806;50.832;4.864;2024-02-26T02:12:36;2.10;;;0.70;;
82990;SDS011;72806;50.832;4.864;2024-02-26T02:15:05;1.55;;;0.70;;
82990;SDS011;72806;50.832;4.864;2024-02-26T02:17:35;2.53;;;0.63;;
82990;SDS011;72806;50.832;4.864;2024-02-26T02:20:02;0.82;;;0.82;;
82990;SDS011;72806;50.832;4.864;2024-02-26T02:22:35;2.38;;;1.08;;
82990;SDS011;72806;50.832;4.864;2024-02-26T02:25:03;1.05;;;0.85;;
82990;SDS011;72806;50.832;4.864;2024-02-26T02:27:31;1.58;;;1.05;;
82990;SDS011;72806;50.832;4.864;2024-02-26T02:29:58;1.13;;;0.93;;
82990;SDS011;72806;50.832;4.864;2024-02-26T02:32:26;1.67;;;0.63;;
82990;SDS011;72806;50.832;4.864;2024-02-26T02:34:54;1.52;;;1.02;;
82990;SDS011;72806;50.832;4.864;2024-02-26T02:37:22;2.75;;;0.90;;
82990;SDS011;72806;50.832;4.864;2024-02-26T02:39:50;0.73;;;0.70;;
82990;SDS011;72806;50.832;4.864;2024-02-26T02:42:20;0.80;;;0.80;;
82990;SDS011;72806;50.832;4.864;2024-02-26T02:44:47;0.73;;;0.63;;
82990;SDS011;72806;50.832;4.864;2024-02-26T02:47:14;0.38;;;0.38;;
82990;SDS011;72806;50.832;4.864;2024-02-26T02:49:41;2.03;;;1.27;;
82990;SDS011;72806;50.832;4.864;2024-02-26T02:52:08;1.00;;;0.88;;
82990;SDS011;72806;50.832;4.864;2024-02-26T02:54:35;2.15;;;1.10;;
82990;SDS011;72806;50.832;4.864;2024-02-26T02:57:06;0.30;;;0.30;;
82990;SDS011;72806;50.832;4.864;2024-02-26T02:59:34;0.93;;;0.68;;
82990;SDS011;72806;50.832;4.864;2024-02-26T03:02:02;1.85;;;1.10;;
82990;SDS011;72806;50.832;4.864;2024-02-26T03:04:29;2.35;;;0.90;;
82990;SDS011;72806;50.832;4.864;2024-02-26T03:06:56;1.30;;;1.20;;
82990;SDS011;72806;50.832;4.864;2024-02-26T03:09:23;0.93;;;0.60;;
82990;SDS011;72806;50.832;4.864;2024-02-26T03:11:50;2.42;;;1.10;;
82990;SDS011;72806;50.832;4.864;2024-02-26T03:14:19;1.27;;;1.10;;
82990;SDS011;72806;50.832;4.864;2024-02-26T03:16:46;1.40;;;1.17;;
82990;SDS011;72806;50.832;4.864;2024-02-26T03:19:14;3.22;;;1.00;;
82990;SDS011;72806;50.832;4.864;2024-02-26T03:21:42;1.27;;;1.17;;
82990;SDS011;72806;50.832;4.864;2024-02-26T03:24:09;1.02;;;0.85;;
82990;SDS011;72806;50.832;4.864;2024-02-26T03:26:37;1.85;;;1.02;;
82990;SDS011;72806;50.832;4.864;2024-02-26T03:29:04;2.58;;;1.02;;
82990;SDS011;72806;50.832;4.864;2024-02-26T03:31:33;1.35;;;1.10;;
82990;SDS011;72806;50.832;4.864;2024-02-26T03:34:00;1.13;;;1.05;;
82990;SDS011;72806;50.832;4.864;2024-02-26T03:36:27;1.10;;;0.82;;
82990;SDS011;72806;50.832;4.864;2024-02-26T03:38:54;4.53;;;1.20;;
82990;SDS011;72806;50.832;4.864;2024-02-26T03:41:21;1.42;;;1.13;;
82990;SDS011;72806;50.832;4.864;2024-02-26T03:43:49;1.35;;;1.13;;
82990;SDS011;72806;50.832;4.864;2024-02-26T03:46:15;1.48;;;1.02;;
82990;SDS011;72806;50.832;4.864;2024-02-26T03:48:44;1.58;;;1.30;;
82990;SDS011;72806;50.832;4.864;2024-02-26T03:51:11;1.80;;;0.85;;
82990;SDS011;72806;50.832;4.864;2024-02-26T03:53:38;0.60;;;0.60;;
82990;SDS011;72806;50.832;4.864;2024-02-26T03:56:06;1.10;;;1.00;;
82990;SDS011;72806;50.832;4.864;2024-02-26T03:58:34;0.80;;;0.80;;
82990;SDS011;72806;50.832;4.864;2024-02-26T04:01:01;0.80;;;0.77;;
82990;SDS011;72806;50.832;4.864;2024-02-26T04:03:29;2.50;;;1.20;;
82990;SDS011;72806;50.832;4.864;2024-02-26T04:05:57;1.23;;;1.05;;
82990;SDS011;72806;50.832;4.864;2024-02-26T04:08:24;1.20;;;1.00;;
82990;SDS011;72806;50.832;4.864;2024-02-26T04:10:51;1.33;;;0.93;;
82990;SDS011;72806;50.832;4.864;2024-02-26T04:13:18;2.83;;;0.82;;
82990;SDS011;72806;50.832;4.864;2024-02-26T04:15:45;2.47;;;1.30;;
82990;SDS011;72806;50.832;4.864;2024-02-26T04:18:13;2.30;;;1.40;;
82990;SDS011;72806;50.832;4.864;2024-02-26T04:20:40;1.25;;;1.15;;
82990;SDS011;72806;50.832;4.864;2024-02-26T04:23:08;1.70;;;0.90;;
82990;SDS011;72806;50.832;4.864;2024-02-26T04:25:36;1.50;;;1.10;;
82990;SDS011;72806;50.832;4.864;2024-02-26T04:28:03;1.38;;;1.27;;
82990;SDS011;72806;50.832;4.864;2024-02-26T04:30:30;1.13;;;1.08;;
82990;SDS011;72806;50.832;4.864;2024-02-26T04:32:57;0.65;;;0.47;;
82990;SDS011;72806;50.832;4.864;2024-02-26T04:35:24;1.30;;;1.20;;
82990;SDS011;72806;50.832;4.864;2024-02-26T04:37:52;1.30;;;1.20;;
82990;SDS011;72806;50.832;4.864;2024-02-26T04:40:21;2.42;;;1.40;;
82990;SDS011;72806;50.832;4.864;2024-02-26T04:42:48;1.35;;;1.08;;
82990;SDS011;72806;50.832;4.864;2024-02-26T04:45:15;1.40;;;1.05;;
82990;SDS011;72806;50.832;4.864;2024-02-26T04:47:42;1.85;;;0.98;;
82990;SDS011;72806;50.832;4.864;2024-02-26T04:50:09;1.73;;;1.00;;
82990;SDS011;72806;50.832;4.864;2024-02-26T04:52:36;0.75;;;0.70;;
82990;SDS011;72806;50.832;4.864;2024-02-26T04:55:03;0.73;;;0.73;;
82990;SDS011;72806;50.832;4.864;2024-02-26T04:57:32;1.35;;;0.90;;
82990;SDS011;72806;50.832;4.864;2024-02-26T04:59:59;2.15;;;1.50;;
82990;SDS011;72806;50.832;4.864;2024-02-26T05:02:26;2.40;;;2.17;;
82990;SDS011;72806;50.832;4.864;2024-02-26T05:04:55;1.83;;;1.70;;
82990;SDS011;72806;50.832;4.864;2024-02-26T05:07:22;2.15;;;1.70;;
82990;SDS011;72806;50.832;4.864;2024-02-26T05:09:49;3.38;;;1.95;;
82990;SDS011;72806;50.832;4.864;2024-02-26T05:12:17;3.15;;;2.42;;
82990;SDS011;72806;50.832;4.864;2024-02-26T05:14:45;2.03;;;1.77;;
82990;SDS011;72806;50.832;4.864;2024-02-26T05:17:13;2.28;;;1.98;;
82990;SDS011;72806;50.832;4.864;2024-02-26T05:19:40;11.07;;;1.83;;
82990;SDS011;72806;50.832;4.864;2024-02-26T05:22:07;5.35;;;2.45;;
82990;SDS011;72806;50.832;4.864;2024-02-26T05:24:37;2.50;;;2.22;;
82990;SDS011;72806;50.832;4.864;2024-02-26T05:27:04;4.07;;;3.30;;
82990;SDS011;72806;50.832;4.864;2024-02-26T05:29:31;3.55;;;2.80;;
82990;SDS011;72806;50.832;4.864;2024-02-26T05:32:00;3.08;;;2.60;;
82990;SDS011;72806;50.832;4.864;2024-02-26T05:34:27;2.28;;;2.03;;
82990;SDS011;72806;50.832;4.864;2024-02-26T05:36:55;6.22;;;3.80;;
82990;SDS011;72806;50.832;4.864;2024-02-26T05:39:22;3.33;;;2.60;;
82990;SDS011;72806;50.832;4.864;2024-02-26T05:41:49;5.47;;;4.07;;
82990;SDS011;72806;50.832;4.864;2024-02-26T05:44:16;2.45;;;2.08;;
82990;SDS011;72806;50.832;4.864;2024-02-26T05:46:43;3.30;;;2.38;;
82990;SDS011;72806;50.832;4.864;2024-02-26T05:49:12;2.03;;;1.80;;
82990;SDS011;72806;50.832;4.864;2024-02-26T05:51:39;2.22;;;2.05;;
82990;SDS011;72806;50.832;4.864;2024-02-26T05:54:06;2.50;;;2.25;;
82990;SDS011;72806;50.832;4.864;2024-02-26T05:56:34;2.78;;;2.58;;
82990;SDS011;72806;50.832;4.864;2024-02-26T05:59:01;4.22;;;2.92;;
82990;SDS011;72806;50.832;4.864;2024-02-26T06:01:28;2.40;;;2.15;;
82990;SDS011;72806;50.832;4.864;2024-02-26T06:03:55;1.70;;;1.60;;
82990;SDS011;72806;50.832;4.864;2024-02-26T06:06:24;3.70;;;3.33;;
82990;SDS011;72806;50.832;4.864;2024-02-26T06:08:51;3.00;;;2.78;;
82990;SDS011;72806;50.832;4.864;2024-02-26T06:11:18;4.03;;;3.72;;
82990;SDS011;72806;50.832;4.864;2024-02-26T06:13:47;2.85;;;2.45;;
82990;SDS011;72806;50.832;4.864;2024-02-26T06:16:15;2.65;;;2.45;;
82990;SDS011;72806;50.832;4.864;2024-02-26T06:18:42;3.72;;;2.90;;
82990;SDS011;72806;50.832;4.864;2024-02-26T06:21:10;3.40;;;3.10;;
82990;SDS011;72806;50.832;4.864;2024-02-26T06:23:39;3.28;;;2.85;;
82990;SDS011;72806;50.832;4.864;2024-02-26T06:26:06;4.63;;;3.63;;
82990;SDS011;72806;50.832;4.864;2024-02-26T06:28:33;4.25;;;3.78;;
82990;SDS011;72806;50.832;4.864;2024-02-26T06:31:01;3.33;;;3.03;;
82990;SDS011;72806;50.832;4.864;2024-02-26T06:33:28;5.35;;;4.40;;
82990;SDS011;72806;50.832;4.864;2024-02-26T06:35:55;2.70;;;2.10;;
82990;SDS011;72806;50.832;4.864;2024-02-26T06:38:23;5.93;;;4.60;;
82990;SDS011;72806;50.832;4.864;2024-02-26T06:40:51;2.80;;;2.10;;
82990;SDS011;72806;50.832;4.864;2024-02-26T06:43:18;4.93;;;4.10;;
82990;SDS011;72806;50.832;4.864;2024-02-26T06:45:45;4.10;;;3.70;;
82990;SDS011;72806;50.832;4.864;2024-02-26T06:48:13;5.47;;;4.10;;
82990;SDS011;72806;50.832;4.864;2024-02-26T06:50:40;5.22;;;4.72;;
82990;SDS011;72806;50.832;4.864;2024-02-26T06:53:07;6.85;;;3.50;;
82990;SDS011;72806;50.832;4.864;2024-02-26T06:55:34;4.47;;;3.60;;
82990;SDS011;72806;50.832;4.864;2024-02-26T06:58:04;6.40;;;4.53;;
82990;SDS011;72806;50.832;4.864;2024-02-26T07:00:31;7.03;;;5.40;;
82990;SDS011;72806;50.832;4.864;2024-02-26T07:02:58;5.65;;;5.07;;
82990;SDS011;72806;50.832;4.864;2024-02-26T07:05:25;4.93;;;4.40;;
82990;SDS011;72806;50.832;4.864;2024-02-26T07:07:52;7.40;;;5.35;;
82990;SDS011;72806;50.832;4.864;2024-02-26T07:10:19;5.95;;;4.68;;
82990;SDS011;72806;50.832;4.864;2024-02-26T07:12:46;6.95;;;4.30;;
82990;SDS011;72806;50.832;4.864;2024-02-26T07:15:15;3.45;;;2.95;;
82990;SDS011;72806;50.832;4.864;2024-02-26T07:17:44;4.00;;;2.33;;
82990;SDS011;72806;50.832;4.864;2024-02-26T07:20:13;3.42;;;3.13;;
82990;SDS011;72806;50.832;4.864;2024-02-26T07:22:40;3.13;;;2.85;;
82990;SDS011;72806;50.832;4.864;2024-02-26T07:25:07;4.35;;;3.88;;
82990;SDS011;72806;50.832;4.864;2024-02-26T07:27:38;3.97;;;3.20;;
82990;SDS011;72806;50.832;4.864;2024-02-26T07:30:05;3.65;;;3.13;;
82990;SDS011;72806;50.832;4.864;2024-02-26T07:32:35;4.57;;;4.00;;
82990;SDS011;72806;50.832;4.864;2024-02-26T07:35:03;4.20;;;3.78;;
82990;SDS011;72806;50.832;4.864;2024-02-26T07:37:31;5.15;;;3.45;;
82990;SDS011;72806;50.832;4.864;2024-02-26T07:39:58;2.70;;;2.45;;
82990;SDS011;72806;50.832;4.864;2024-02-26T07:42:25;4.18;;;3.45;;
82990;SDS011;72806;50.832;4.864;2024-02-26T07:44:52;6.30;;;4.85;;
82990;SDS011;72806;50.832;4.864;2024-02-26T07:47:19;10.70;;;7.07;;
82990;SDS011;72806;50.832;4.864;2024-02-26T07:49:48;4.05;;;3.15;;
82990;SDS011;72806;50.832;4.864;2024-02-26T07:52:15;9.02;;;5.25;;
82990;SDS011;72806;50.832;4.864;2024-02-26T07:54:43;2.78;;;2.58;;
82990;SDS011;72806;50.832;4.864;2024-02-26T07:57:10;6.72;;;4.05;;
82990;SDS011;72806;50.832;4.864;2024-02-26T07:59:40;4.68;;;3.72;;
82990;SDS011;72806;50.832;4.864;2024-02-26T08:02:07;4.65;;;2.63;;
82990;SDS011;72806;50.832;4.864;2024-02-26T08:04:35;9.43;;;4.53;;
82990;SDS011;72806;50.832;4.864;2024-02-26T08:07:03;8.23;;;4.05;;
82990;SDS011;72806;50.832;4.864;2024-02-26T08:09:30;6.70;;;5.97;;
82990;SDS011;72806;50.832;4.864;2024-02-26T08:11:58;5.50;;;4.85;;
82990;SDS011;72806;50.832;4.864;2024-02-26T08:14:25;4.88;;;4.45;;
82990;SDS011;72806;50.832;4.864;2024-02-26T08:16:52;5.20;;;4.80;;
82990;SDS011;72806;50.832;4.864;2024-02-26T08:19:19;7.82;;;6.70;;
82990;SDS011;72806;50.832;4.864;2024-02-26T08:21:47;2.53;;;1.83;;
82990;SDS011;72806;50.832;4.864;2024-02-26T08:24:15;5.35;;;4.68;;
82990;SDS011;72806;50.832;4.864;2024-02-26T08:26:43;6.97;;;5.45;;
82990;SDS011;72806;50.832;4.864;2024-02-26T08:29:10;7.47;;;4.97;;
82990;SDS011;72806;50.832;4.864;2024-02-26T08:31:37;8.20;;;6.85;;
82990;SDS011;72806;50.832;4.864;2024-02-26T08:34:06;8.00;;;7.18;;
82990;SDS011;72806;50.832;4.864;2024-02-26T08:36:34;11.32;;;7.60;;
82990;SDS011;72806;50.832;4.864;2024-02-26T08:39:01;7.30;;;6.00;;
82990;SDS011;72806;50.832;4.864;2024-02-26T08:41:33;3.30;;;3.00;;
82990;SDS011;72806;50.832;4.864;2024-02-26T08:44:03;6.00;;;5.40;;
82990;SDS011;72806;50.832;4.864;2024-02-26T08:46:30;3.85;;;3.47;;
82990;SDS011;72806;50.832;4.864;2024-02-26T08:48:58;5.43;;;4.93;;
82990;SDS011;72806;50.832;4.864;2024-02-26T08:51:25;5.88;;;4.72;;
82990;SDS011;72806;50.832;4.864;2024-02-26T08:53:52;3.72;;;3.17;;
82990;SDS011;72806;50.832;4.864;2024-02-26T08:56:20;7.47;;;5.38;;
82990;SDS011;72806;50.832;4.864;2024-02-26T08:58:48;10.68;;;6.53;;
82990;SDS011;72806;50.832;4.864;2024-02-26T09:01:18;7.15;;;5.20;;
82990;SDS011;72806;50.832;4.864;2024-02-26T09:03:46;5.95;;;4.57;;
82990;SDS011;72806;50.832;4.864;2024-02-26T09:06:14;9.20;;;7.50;;
82990;SDS011;72806;50.832;4.864;2024-02-26T09:08:41;7.90;;;6.40;;
82990;SDS011;72806;50.832;4.864;2024-02-26T09:11:08;8.32;;;6.85;;
82990;SDS011;72806;50.832;4.864;2024-02-26T09:13:36;5.85;;;5.25;;
82990;SDS011;72806;50.832;4.864;2024-02-26T09:16:06;6.07;;;4.63;;
82990;SDS011;72806;50.832;4.864;2024-02-26T09:18:33;2.22;;;2.08;;
82990;SDS011;72806;50.832;4.864;2024-02-26T09:21:03;6.65;;;5.82;;
82990;SDS011;72806;50.832;4.864;2024-02-26T09:23:31;5.13;;;4.65;;
82990;SDS011;72806;50.832;4.864;2024-02-26T09:26:00;8.15;;;6.10;;
82990;SDS011;72806;50.832;4.864;2024-02-26T09:28:27;7.63;;;5.88;;
82990;SDS011;72806;50.832;4.864;2024-02-26T09:30:57;6.43;;;5.70;;
82990;SDS011;72806;50.832;4.864;2024-02-26T09:33:25;5.68;;;5.13;;
82990;SDS011;72806;50.832;4.864;2024-02-26T09:35:52;5.70;;;4.82;;
82990;SDS011;72806;50.832;4.864;2024-02-26T09:38:19;1.75;;;1.65;;
82990;SDS011;72806;50.832;4.864;2024-02-26T09:40:47;6.75;;;6.05;;
82990;SDS011;72806;50.832;4.864;2024-02-26T09:43:14;7.38;;;6.63;;
82990;SDS011;72806;50.832;4.864;2024-02-26T09:45:43;3.97;;;3.63;;
82990;SDS011;72806;50.832;4.864;2024-02-26T09:48:11;3.10;;;2.85;;
82990;SDS011;72806;50.832;4.864;2024-02-26T09:50:41;5.30;;;4.80;;
82990;SDS011;72806;50.832;4.864;2024-02-26T09:53:10;8.43;;;7.57;;
82990;SDS011;72806;50.832;4.864;2024-02-26T09:55:40;4.75;;;4.35;;
82990;SDS011;72806;50.832;4.864;2024-02-26T09:58:08;5.72;;;5.07;;
82990;SDS011;72806;50.832;4.864;2024-02-26T10:00:42;5.63;;;3.58;;
82990;SDS011;72806;50.832;4.864;2024-02-26T10:03:13;6.30;;;5.70;;
82990;SDS011;72806;50.832;4.864;2024-02-26T10:05:43;2.22;;;2.13;;
82990;SDS011;72806;50.832;4.864;2024-02-26T10:08:11;6.70;;;5.47;;
82990;SDS011;72806;50.832;4.864;2024-02-26T10:10:39;7.32;;;5.00;;
82990;SDS011;72806;50.832;4.864;2024-02-26T10:13:07;2.70;;;2.22;;
82990;SDS011;72806;50.832;4.864;2024-02-26T10:15:36;5.50;;;4.55;;
82990;SDS011;72806;50.832;4.864;2024-02-26T10:18:04;3.90;;;2.08;;
82990;SDS011;72806;50.832;4.864;2024-02-26T10:20:31;5.65;;;4.63;;
82990;SDS011;72806;50.832;4.864;2024-02-26T10:23:00;3.58;;;3.13;;
82990;SDS011;72806;50.832;4.864;2024-02-26T10:25:30;4.00;;;3.63;;
82990;SDS011;72806;50.832;4.864;2024-02-26T10:27:59;1.77;;;1.67;;
82990;SDS011;72806;50.832;4.864;2024-02-26T10:30:28;5.85;;;4.85;;
82990;SDS011;72806;50.832;4.864;2024-02-26T10:32:55;3.75;;;3.45;;
82990;SDS011;72806;50.832;4.864;2024-02-26T10:35:23;3.92;;;3.63;;
82990;SDS011;72806;50.832;4.864;2024-02-26T10:37:51;4.93;;;3.97;;
82990;SDS011;72806;50.832;4.864;2024-02-26T10:40:20;5.32;;;4.70;;
82990;SDS011;72806;50.832;4.864;2024-02-26T10:42:48;3.70;;;3.35;;
82990;SDS011;72806;50.832;4.864;2024-02-26T10:45:15;6.97;;;5.22;;
82990;SDS011;72806;50.832;4.864;2024-02-26T10:47:43;4.85;;;4.45;;
82990;SDS011;72806;50.832;4.864;2024-02-26T10:50:10;3.83;;;3.53;;
82990;SDS011;72806;50.832;4.864;2024-02-26T10:52:40;6.68;;;6.00;;
82990;SDS011;72806;50.832;4.864;2024-02-26T10:55:09;4.15;;;3.35;;
82990;SDS011;72806;50.832;4.864;2024-02-26T10:57:44;7.97;;;6.70;;
82990;SDS011;72806;50.832;4.864;2024-02-26T11:00:13;3.50;;;3.20;;
82990;SDS011;72806;50.832;4.864;2024-02-26T11:02:41;6.97;;;5.35;;
82990;SDS011;72806;50.832;4.864;2024-02-26T11:05:11;9.07;;;6.88;;
82990;SDS011;72806;50.832;4.864;2024-02-26T11:07:39;6.20;;;4.60;;
82990;SDS011;72806;50.832;4.864;2024-02-26T11:10:09;17.80;;;10.00;;
82990;SDS011;72806;50.832;4.864;2024-02-26T11:12:38;16.45;;;8.90;;
82990;SDS011;72806;50.832;4.864;2024-02-26T11:15:08;17.13;;;9.50;;
82990;SDS011;72806;50.832;4.864;2024-02-26T11:17:37;27.13;;;15.45;;
82990;SDS011;72806;50.832;4.864;2024-02-26T11:20:05;9.88;;;5.28;;
82990;SDS011;72806;50.832;4.864;2024-02-26T11:22:37;5.07;;;4.45;;
82990;SDS011;72806;50.832;4.864;2024-02-26T11:25:05;37.75;;;17.67;;
82990;SDS011;72806;50.832;4.864;2024-02-26T11:27:34;5.15;;;3.88;;
82990;SDS011;72806;50.832;4.864;2024-02-26T11:30:05;15.18;;;9.43;;
82990;SDS011;72806;50.832;4.864;2024-02-26T11:32:38;9.18;;;6.60;;
82990;SDS011;72806;50.832;4.864;2024-02-26T11:35:05;5.85;;;5.25;;
82990;SDS011;72806;50.832;4.864;2024-02-26T11:37:35;5.32;;;4.82;;
82990;SDS011;72806;50.832;4.864;2024-02-26T11:40:03;5.15;;;3.95;;
82990;SDS011;72806;50.832;4.864;2024-02-26T11:42:31;3.85;;;3.50;;
82990;SDS011;72806;50.832;4.864;2024-02-26T11:44:59;5.43;;;4.93;;
82990;SDS011;72806;50.832;4.864;2024-02-26T11:47:28;1.42;;;1.33;;
82990;SDS011;72806;50.832;4.864;2024-02-26T11:49:55;4.88;;;4.38;;
82990;SDS011;72806;50.832;4.864;2024-02-26T11:52:23;3.60;;;3.05;;
82990;SDS011;72806;50.832;4.864;2024-02-26T11:54:50;4.13;;;3.67;;
82990;SDS011;72806;50.832;4.864;2024-02-26T11:57:22;7.05;;;3.97;;
82990;SDS011;72806;50.832;4.864;2024-02-26T11:59:51;6.70;;;4.82;;
82990;SDS011;72806;50.832;4.864;2024-02-26T12:05:07;3.53;;;3.08;;
82990;SDS011;72806;50.832;4.864;2024-02-26T12:07:37;5.38;;;3.95;;
82990;SDS011;72806;50.832;4.864;2024-02-26T12:13:02;3.30;;;3.00;;
82990;SDS011;72806;50.832;4.864;2024-02-26T12:15:32;3.45;;;3.15;;
82990;SDS011;72806;50.832;4.864;2024-02-26T12:18:02;2.30;;;1.98;;
82990;SDS011;72806;50.832;4.864;2024-02-26T12:23:00;2.00;;;1.88;;
82990;SDS011;72806;50.832;4.864;2024-02-26T12:25:29;3.10;;;2.80;;
82990;SDS011;72806;50.832;4.864;2024-02-26T12:27:58;4.25;;;3.85;;
82990;SDS011;72806;50.832;4.864;2024-02-26T12:30:25;3.20;;;3.00;;
82990;SDS011;72806;50.832;4.864;2024-02-26T12:32:55;1.60;;;1.50;;
82990;SDS011;72806;50.832;4.864;2024-02-26T12:35:25;4.13;;;3.72;;
82990;SDS011;72806;50.832;4.864;2024-02-26T12:37:53;3.92;;;3.03;;
82990;SDS011;72806;50.832;4.864;2024-02-26T12:40:21;1.38;;;1.27;;
82990;SDS011;72806;50.832;4.864;2024-02-26T12:42:48;4.07;;;3.67;;
82990;SDS011;72806;50.832;4.864;2024-02-26T12:45:16;3.70;;;3.30;;
82990;SDS011;72806;50.832;4.864;2024-02-26T12:47:43;2.10;;;1.20;;
82990;SDS011;72806;50.832;4.864;2024-02-26T12:50:12;3.00;;;2.58;;
82990;SDS011;72806;50.832;4.864;2024-02-26T12:52:42;9.43;;;5.53;;
82990;SDS011;72806;50.832;4.864;2024-02-26T12:55:11;12.82;;;7.88;;
82990;SDS011;72806;50.832;4.864;2024-02-26T12:57:41;7.30;;;3.50;;
82990;SDS011;72806;50.832;4.864;2024-02-26T13:00:11;9.90;;;5.15;;
82990;SDS011;72806;50.832;4.864;2024-02-26T13:02:40;3.63;;;3.33;;
82990;SDS011;72806;50.832;4.864;2024-02-26T13:05:10;4.90;;;3.70;;
82990;SDS011;72806;50.832;4.864;2024-02-26T13:07:41;2.83;;;2.63;;
82990;SDS011;72806;50.832;4.864;2024-02-26T13:10:09;2.35;;;2.05;;
82990;SDS011;72806;50.832;4.864;2024-02-26T13:12:41;3.90;;;3.60;;
82990;SDS011;72806;50.832;4.864;2024-02-26T13:15:14;2.38;;;2.00;;
82990;SDS011;72806;50.832;4.864;2024-02-26T13:17:43;2.35;;;2.15;;
82990;SDS011;72806;50.832;4.864;2024-02-26T13:20:11;3.72;;;3.42;;
82990;SDS011;72806;50.832;4.864;2024-02-26T13:22:41;3.67;;;3.25;;
82990;SDS011;72806;50.832;4.864;2024-02-26T13:25:08;2.20;;;2.05;;
82990;SDS011;72806;50.832;4.864;2024-02-26T13:27:35;2.13;;;1.92;;
82990;SDS011;72806;50.832;4.864;2024-02-26T13:30:03;2.60;;;2.35;;
82990;SDS011;72806;50.832;4.864;2024-02-26T13:32:33;3.35;;;3.05;;
82990;SDS011;72806;50.832;4.864;2024-02-26T13:35:04;3.78;;;3.40;;
82990;SDS011;72806;50.832;4.864;2024-02-26T13:37:33;3.17;;;2.88;;
82990;SDS011;72806;50.832;4.864;2024-02-26T13:40:02;2.97;;;2.70;;
82990;SDS011;72806;50.832;4.864;2024-02-26T13:42:31;3.35;;;2.65;;
82990;SDS011;72806;50.832;4.864;2024-02-26T13:44:59;3.70;;;2.80;;
82990;SDS011;72806;50.832;4.864;2024-02-26T13:47:26;3.35;;;3.05;;
82990;SDS011;72806;50.832;4.864;2024-02-26T13:49:53;2.65;;;2.30;;
82990;SDS011;72806;50.832;4.864;2024-02-26T13:52:21;3.03;;;2.75;;
82990;SDS011;72806;50.832;4.864;2024-02-26T13:54:49;4.55;;;4.10;;
82990;SDS011;72806;50.832;4.864;2024-02-26T13:57:18;1.95;;;1.85;;
82990;SDS011;72806;50.832;4.864;2024-02-26T13:59:45;4.30;;;3.15;;
82990;SDS011;72806;50.832;4.864;2024-02-26T14:02:13;5.47;;;4.97;;
82990;SDS011;72806;50.832;4.864;2024-02-26T14:04:40;6.03;;;5.43;;
82990;SDS011;72806;50.832;4.864;2024-02-26T14:07:07;5.35;;;4.53;;
82990;SDS011;72806;50.832;4.864;2024-02-26T14:09:35;5.05;;;4.30;;
82990;SDS011;72806;50.832;4.864;2024-02-26T14:12:02;5.07;;;4.45;;
82990;SDS011;72806;50.832;4.864;2024-02-26T14:14:31;2.50;;;2.10;;
82990;SDS011;72806;50.832;4.864;2024-02-26T14:17:01;6.88;;;3.35;;
82990;SDS011;72806;50.832;4.864;2024-02-26T14:19:29;4.25;;;3.90;;
82990;SDS011;72806;50.832;4.864;2024-02-26T14:21:56;8.07;;;6.60;;
82990;SDS011;72806;50.832;4.864;2024-02-26T14:24:23;12.55;;;9.40;;
82990;SDS011;72806;50.832;4.864;2024-02-26T14:26:50;16.20;;;11.70;;
82990;SDS011;72806;50.832;4.864;2024-02-26T14:29:17;7.13;;;4.88;;
82990;SDS011;72806;50.832;4.864;2024-02-26T14:31:46;12.45;;;9.43;;
82990;SDS011;72806;50.832;4.864;2024-02-26T14:34:13;8.50;;;5.53;;
82990;SDS011;72806;50.832;4.864;2024-02-26T14:36:43;13.13;;;9.15;;
82990;SDS011;72806;50.832;4.864;2024-02-26T14:39:10;4.22;;;3.83;;
82990;SDS011;72806;50.832;4.864;2024-02-26T14:41:37;18.48;;;10.77;;
82990;SDS011;72806;50.832;4.864;2024-02-26T14:44:05;17.80;;;9.77;;
82990;SDS011;72806;50.832;4.864;2024-02-26T14:46:32;18.80;;;10.70;;
82990;SDS011;72806;50.832;4.864;2024-02-26T14:49:00;18.25;;;8.75;;
82990;SDS011;72806;50.832;4.864;2024-02-26T14:51:28;12.85;;;7.75;;
82990;SDS011;72806;50.832;4.864;2024-02-26T14:53:55;6.32;;;4.65;;
82990;SDS011;72806;50.832;4.864;2024-02-26T14:56:24;31.02;;;15.23;;
82990;SDS011;72806;50.832;4.864;2024-02-26T14:58:51;23.23;;;11.13;;